sensor_id;sensor_type;location;lat;lon;timestamp;P1;durP1;ratioP1;P2;durP2;ratioP2
23142;SDS011;11740;51.168;4.112;2023-09-07T00:02:11;7.53;;;4.55;;
23142;SDS011;11740;51.168;4.112;2023-09-07T00:04:38;5.82;;;4.55;;
23142;SDS011;11740;51.168;4.112;2023-09-07T00:07:05;4.80;;;4.30;;
23142;SDS011;11740;51.168;4.112;2023-09-07T00:09:32;7.43;;;4.20;;
23142;SDS011;11740;51.168;4.112;2023-09-07T00:12:00;5.40;;;4.43;;
23142;SDS011;11740;51.168;4.112;2023-09-07T00:14:27;6.55;;;4.40;;
23142;SDS011;11740;51.168;4.112;2023-09-07T00:16:54;8.82;;;4.32;;
23142;SDS011;11740;51.168;4.112;2023-09-07T00:19:21;6.53;;;4.18;;
23142;SDS011;11740;51.168;4.112;2023-09-07T00:21:48;7.93;;;4.50;;
23142;SDS011;11740;51.168;4.112;2023-09-07T00:24:18;7.55;;;4.60;;
23142;SDS011;11740;51.168;4.112;2023-09-07T00:26:45;6.75;;;4.13;;
23142;SDS011;11740;51.168;4.112;2023-09-07T00:29:12;6.78;;;4.20;;
23142;SDS011;11740;51.168;4.112;2023-09-07T00:31:39;6.30;;;4.40;;
23142;SDS011;11740;51.168;4.112;2023-09-07T00:34:07;6.10;;;4.55;;
23142;SDS011;11740;51.168;4.112;2023-09-07T00:36:34;5.80;;;4.63;;
23142;SDS011;11740;51.168;4.112;2023-09-07T00:39:02;6.95;;;4.40;;
23142;SDS011;11740;51.168;4.112;2023-09-07T00:41:30;5.07;;;3.92;;
23142;SDS011;11740;51.168;4.112;2023-09-07T00:43:56;5.68;;;4.03;;
23142;SDS011;11740;51.168;4.112;2023-09-07T00:46:23;7.40;;;4.25;;
23142;SDS011;11740;51.168;4.112;2023-09-07T00:48:50;4.40;;;4.00;;
23142;SDS011;11740;51.168;4.112;2023-09-07T00:51:17;5.15;;;3.70;;
23142;SDS011;11740;51.168;4.112;2023-09-07T00:53:44;7.72;;;4.22;;
23142;SDS011;11740;51.168;4.112;2023-09-07T00:56:11;6.35;;;4.07;;
23142;SDS011;11740;51.168;4.112;2023-09-07T00:58:38;6.60;;;3.90;;
23142;SDS011;11740;51.168;4.112;2023-09-07T01:01:05;6.65;;;4.30;;
23142;SDS011;11740;51.168;4.112;2023-09-07T01:03:32;5.25;;;3.95;;
23142;SDS011;11740;51.168;4.112;2023-09-07T01:06:12;7.20;;;4.05;;
23142;SDS011;11740;51.168;4.112;2023-09-07T01:08:46;4.30;;;3.90;;
23142;SDS011;11740;51.168;4.112;2023-09-07T01:11:16;5.93;;;3.83;;
23142;SDS011;11740;51.168;4.112;2023-09-07T01:13:52;3.92;;;3.50;;
23142;SDS011;11740;51.168;4.112;2023-09-07T01:16:20;5.47;;;3.78;;
23142;SDS011;11740;51.168;4.112;2023-09-07T01:18:50;4.63;;;3.88;;
23142;SDS011;11740;51.168;4.112;2023-09-07T01:21:17;4.53;;;3.72;;
23142;SDS011;11740;51.168;4.112;2023-09-07T01:23:45;5.85;;;3.58;;
23142;SDS011;11740;51.168;4.112;2023-09-07T01:26:14;6.13;;;3.97;;
23142;SDS011;11740;51.168;4.112;2023-09-07T01:28:41;4.90;;;3.80;;
23142;SDS011;11740;51.168;4.112;2023-09-07T01:31:08;7.05;;;4.10;;
23142;SDS011;11740;51.168;4.112;2023-09-07T01:33:36;5.90;;;4.22;;
23142;SDS011;11740;51.168;4.112;2023-09-07T01:36:03;5.43;;;3.97;;
23142;SDS011;11740;51.168;4.112;2023-09-07T01:38:31;5.32;;;3.95;;
23142;SDS011;11740;51.168;4.112;2023-09-07T01:40:58;5.32;;;3.85;;
23142;SDS011;11740;51.168;4.112;2023-09-07T01:43:25;4.65;;;3.88;;
23142;SDS011;11740;51.168;4.112;2023-09-07T01:45:52;4.22;;;3.63;;
23142;SDS011;11740;51.168;4.112;2023-09-07T01:48:19;5.78;;;4.20;;
23142;SDS011;11740;51.168;4.112;2023-09-07T01:50:46;5.25;;;4.03;;
23142;SDS011;11740;51.168;4.112;2023-09-07T01:53:13;11.75;;;5.07;;
23142;SDS011;11740;51.168;4.112;2023-09-07T01:55:40;6.85;;;4.30;;
23142;SDS011;11740;51.168;4.112;2023-09-07T01:58:07;8.82;;;4.40;;
23142;SDS011;11740;51.168;4.112;2023-09-07T02:00:37;11.30;;;4.72;;
23142;SDS011;11740;51.168;4.112;2023-09-07T02:03:05;9.25;;;4.47;;
23142;SDS011;11740;51.168;4.112;2023-09-07T02:05:33;10.43;;;4.30;;
23142;SDS011;11740;51.168;4.112;2023-09-07T02:08:00;10.30;;;4.80;;
23142;SDS011;11740;51.168;4.112;2023-09-07T02:10:27;8.60;;;4.78;;
23142;SDS011;11740;51.168;4.112;2023-09-07T02:12:54;5.38;;;4.18;;
23142;SDS011;11740;51.168;4.112;2023-09-07T02:15:23;5.97;;;4.43;;
23142;SDS011;11740;51.168;4.112;2023-09-07T02:17:50;6.60;;;4.38;;
23142;SDS011;11740;51.168;4.112;2023-09-07T02:20:19;6.40;;;4.20;;
23142;SDS011;11740;51.168;4.112;2023-09-07T02:22:46;6.63;;;4.30;;
23142;SDS011;11740;51.168;4.112;2023-09-07T02:25:13;6.65;;;4.13;;
23142;SDS011;11740;51.168;4.112;2023-09-07T02:27:40;5.70;;;4.15;;
23142;SDS011;11740;51.168;4.112;2023-09-07T02:30:08;5.15;;;3.92;;
23142;SDS011;11740;51.168;4.112;2023-09-07T02:32:35;5.93;;;4.38;;
23142;SDS011;11740;51.168;4.112;2023-09-07T02:35:02;5.75;;;3.90;;
23142;SDS011;11740;51.168;4.112;2023-09-07T02:37:30;6.25;;;4.40;;
23142;SDS011;11740;51.168;4.112;2023-09-07T02:39:58;6.43;;;4.40;;
23142;SDS011;11740;51.168;4.112;2023-09-07T02:42:24;6.82;;;4.00;;
23142;SDS011;11740;51.168;4.112;2023-09-07T02:44:52;4.85;;;3.78;;
23142;SDS011;11740;51.168;4.112;2023-09-07T02:47:19;9.63;;;4.68;;
23142;SDS011;11740;51.168;4.112;2023-09-07T02:49:47;7.13;;;4.63;;
23142;SDS011;11740;51.168;4.112;2023-09-07T02:52:14;4.93;;;3.92;;
23142;SDS011;11740;51.168;4.112;2023-09-07T02:54:41;10.52;;;4.40;;
23142;SDS011;11740;51.168;4.112;2023-09-07T02:57:08;7.85;;;3.95;;
23142;SDS011;11740;51.168;4.112;2023-09-07T02:59:35;6.70;;;4.10;;
23142;SDS011;11740;51.168;4.112;2023-09-07T03:02:02;11.63;;;5.57;;
23142;SDS011;11740;51.168;4.112;2023-09-07T03:04:29;9.70;;;4.95;;
23142;SDS011;11740;51.168;4.112;2023-09-07T03:06:56;8.10;;;5.22;;
23142;SDS011;11740;51.168;4.112;2023-09-07T03:09:23;8.40;;;4.93;;
23142;SDS011;11740;51.168;4.112;2023-09-07T03:11:49;5.97;;;4.57;;
23142;SDS011;11740;51.168;4.112;2023-09-07T03:14:16;6.10;;;4.43;;
23142;SDS011;11740;51.168;4.112;2023-09-07T03:16:43;7.25;;;4.88;;
23142;SDS011;11740;51.168;4.112;2023-09-07T03:19:10;4.93;;;4.32;;
23142;SDS011;11740;51.168;4.112;2023-09-07T03:21:37;5.97;;;4.22;;
23142;SDS011;11740;51.168;4.112;2023-09-07T03:24:04;7.57;;;4.15;;
23142;SDS011;11740;51.168;4.112;2023-09-07T03:26:31;7.15;;;4.68;;
23142;SDS011;11740;51.168;4.112;2023-09-07T03:28:58;5.18;;;4.25;;
23142;SDS011;11740;51.168;4.112;2023-09-07T03:31:25;8.07;;;4.57;;
23142;SDS011;11740;51.168;4.112;2023-09-07T03:33:52;9.23;;;4.78;;
23142;SDS011;11740;51.168;4.112;2023-09-07T03:36:19;6.80;;;4.90;;
23142;SDS011;11740;51.168;4.112;2023-09-07T03:38:48;8.50;;;5.10;;
23142;SDS011;11740;51.168;4.112;2023-09-07T03:41:15;9.45;;;5.80;;
23142;SDS011;11740;51.168;4.112;2023-09-07T03:43:42;9.05;;;5.57;;
23142;SDS011;11740;51.168;4.112;2023-09-07T03:46:08;7.95;;;5.38;;
23142;SDS011;11740;51.168;4.112;2023-09-07T03:48:36;9.38;;;5.20;;
23142;SDS011;11740;51.168;4.112;2023-09-07T03:51:06;7.80;;;5.43;;
23142;SDS011;11740;51.168;4.112;2023-09-07T03:53:33;7.93;;;5.20;;
23142;SDS011;11740;51.168;4.112;2023-09-07T03:56:01;5.78;;;5.10;;
23142;SDS011;11740;51.168;4.112;2023-09-07T03:58:30;7.00;;;4.78;;
23142;SDS011;11740;51.168;4.112;2023-09-07T04:01:00;7.65;;;4.93;;
23142;SDS011;11740;51.168;4.112;2023-09-07T04:03:27;8.23;;;4.97;;
23142;SDS011;11740;51.168;4.112;2023-09-07T04:05:55;6.78;;;4.93;;
23142;SDS011;11740;51.168;4.112;2023-09-07T04:08:22;11.30;;;5.00;;
23142;SDS011;11740;51.168;4.112;2023-09-07T04:10:49;8.45;;;4.90;;
23142;SDS011;11740;51.168;4.112;2023-09-07T04:13:16;6.72;;;4.55;;
23142;SDS011;11740;51.168;4.112;2023-09-07T04:15:45;8.30;;;5.05;;
23142;SDS011;11740;51.168;4.112;2023-09-07T04:18:13;8.45;;;5.47;;
23142;SDS011;11740;51.168;4.112;2023-09-07T04:20:44;9.40;;;5.70;;
23142;SDS011;11740;51.168;4.112;2023-09-07T04:23:11;8.85;;;6.35;;
23142;SDS011;11740;51.168;4.112;2023-09-07T04:25:38;7.63;;;5.68;;
23142;SDS011;11740;51.168;4.112;2023-09-07T04:28:05;6.82;;;5.22;;
23142;SDS011;11740;51.168;4.112;2023-09-07T04:30:36;6.53;;;5.15;;
23142;SDS011;11740;51.168;4.112;2023-09-07T04:33:08;9.05;;;5.55;;
23142;SDS011;11740;51.168;4.112;2023-09-07T04:35:35;7.15;;;5.60;;
23142;SDS011;11740;51.168;4.112;2023-09-07T04:38:02;8.57;;;5.57;;
23142;SDS011;11740;51.168;4.112;2023-09-07T04:40:29;9.88;;;5.95;;
23142;SDS011;11740;51.168;4.112;2023-09-07T04:42:56;6.60;;;5.28;;
23142;SDS011;11740;51.168;4.112;2023-09-07T04:45:23;7.65;;;5.65;;
23142;SDS011;11740;51.168;4.112;2023-09-07T04:47:50;9.43;;;6.15;;
23142;SDS011;11740;51.168;4.112;2023-09-07T04:50:17;7.45;;;5.80;;
23142;SDS011;11740;51.168;4.112;2023-09-07T04:52:44;10.75;;;5.78;;
23142;SDS011;11740;51.168;4.112;2023-09-07T04:55:11;11.73;;;5.65;;
23142;SDS011;11740;51.168;4.112;2023-09-07T04:57:38;10.25;;;5.82;;
23142;SDS011;11740;51.168;4.112;2023-09-07T05:00:06;10.05;;;5.97;;
23142;SDS011;11740;51.168;4.112;2023-09-07T05:02:35;6.97;;;5.25;;
23142;SDS011;11740;51.168;4.112;2023-09-07T05:05:07;7.70;;;4.75;;
23142;SDS011;11740;51.168;4.112;2023-09-07T05:07:34;5.78;;;5.10;;
23142;SDS011;11740;51.168;4.112;2023-09-07T05:10:01;6.32;;;5.28;;
23142;SDS011;11740;51.168;4.112;2023-09-07T05:12:29;7.75;;;5.35;;
23142;SDS011;11740;51.168;4.112;2023-09-07T05:14:56;8.07;;;5.75;;
23142;SDS011;11740;51.168;4.112;2023-09-07T05:17:23;7.70;;;5.15;;
23142;SDS011;11740;51.168;4.112;2023-09-07T05:19:50;5.70;;;4.90;;
23142;SDS011;11740;51.168;4.112;2023-09-07T05:22:17;7.38;;;5.43;;
23142;SDS011;11740;51.168;4.112;2023-09-07T05:24:44;10.07;;;5.55;;
23142;SDS011;11740;51.168;4.112;2023-09-07T05:27:13;7.55;;;5.55;;
23142;SDS011;11740;51.168;4.112;2023-09-07T05:29:40;8.38;;;5.90;;
23142;SDS011;11740;51.168;4.112;2023-09-07T05:32:07;10.77;;;5.53;;
23142;SDS011;11740;51.168;4.112;2023-09-07T05:34:36;12.82;;;6.00;;
23142;SDS011;11740;51.168;4.112;2023-09-07T05:37:03;8.18;;;5.72;;
23142;SDS011;11740;51.168;4.112;2023-09-07T05:39:30;10.45;;;6.60;;
23142;SDS011;11740;51.168;4.112;2023-09-07T05:41:57;9.30;;;5.50;;
23142;SDS011;11740;51.168;4.112;2023-09-07T05:44:24;8.57;;;6.20;;
23142;SDS011;11740;51.168;4.112;2023-09-07T05:46:51;9.45;;;5.40;;
23142;SDS011;11740;51.168;4.112;2023-09-07T05:49:18;10.27;;;5.72;;
23142;SDS011;11740;51.168;4.112;2023-09-07T05:51:45;11.80;;;5.63;;
23142;SDS011;11740;51.168;4.112;2023-09-07T05:54:12;8.88;;;5.95;;
23142;SDS011;11740;51.168;4.112;2023-09-07T05:56:39;10.88;;;5.80;;
23142;SDS011;11740;51.168;4.112;2023-09-07T05:59:06;7.57;;;5.25;;
23142;SDS011;11740;51.168;4.112;2023-09-07T06:01:33;7.22;;;4.90;;
23142;SDS011;11740;51.168;4.112;2023-09-07T06:03:59;7.78;;;5.45;;
23142;SDS011;11740;51.168;4.112;2023-09-07T06:06:27;7.63;;;5.10;;
23142;SDS011;11740;51.168;4.112;2023-09-07T06:08:55;8.95;;;5.85;;
23142;SDS011;11740;51.168;4.112;2023-09-07T06:11:22;10.70;;;6.20;;
23142;SDS011;11740;51.168;4.112;2023-09-07T06:13:49;12.85;;;6.22;;
23142;SDS011;11740;51.168;4.112;2023-09-07T06:16:16;10.07;;;6.80;;
23142;SDS011;11740;51.168;4.112;2023-09-07T06:18:43;14.48;;;7.40;;
23142;SDS011;11740;51.168;4.112;2023-09-07T06:21:10;13.02;;;6.82;;
23142;SDS011;11740;51.168;4.112;2023-09-07T06:23:37;11.98;;;7.70;;
23142;SDS011;11740;51.168;4.112;2023-09-07T06:26:04;15.10;;;7.13;;
23142;SDS011;11740;51.168;4.112;2023-09-07T06:28:31;11.15;;;7.43;;
23142;SDS011;11740;51.168;4.112;2023-09-07T06:30:58;12.70;;;7.18;;
23142;SDS011;11740;51.168;4.112;2023-09-07T06:33:25;13.48;;;8.20;;
23142;SDS011;11740;51.168;4.112;2023-09-07T06:35:52;11.63;;;7.80;;
23142;SDS011;11740;51.168;4.112;2023-09-07T06:38:19;12.10;;;8.23;;
23142;SDS011;11740;51.168;4.112;2023-09-07T06:40:47;12.27;;;8.13;;
23142;SDS011;11740;51.168;4.112;2023-09-07T06:43:15;11.57;;;7.90;;
23142;SDS011;11740;51.168;4.112;2023-09-07T06:45:43;11.95;;;8.48;;
23142;SDS011;11740;51.168;4.112;2023-09-07T06:48:10;11.63;;;8.68;;
23142;SDS011;11740;51.168;4.112;2023-09-07T06:50:39;11.15;;;7.97;;
23142;SDS011;11740;51.168;4.112;2023-09-07T06:53:06;11.05;;;8.40;;
23142;SDS011;11740;51.168;4.112;2023-09-07T06:55:33;10.15;;;8.00;;
23142;SDS011;11740;51.168;4.112;2023-09-07T06:58:00;14.77;;;8.75;;
23142;SDS011;11740;51.168;4.112;2023-09-07T07:00:27;13.65;;;8.65;;
23142;SDS011;11740;51.168;4.112;2023-09-07T07:02:54;12.23;;;8.77;;
23142;SDS011;11740;51.168;4.112;2023-09-07T07:05:24;13.02;;;8.73;;
23142;SDS011;11740;51.168;4.112;2023-09-07T07:07:54;12.27;;;8.32;;
23142;SDS011;11740;51.168;4.112;2023-09-07T07:10:22;12.55;;;8.52;;
23142;SDS011;11740;51.168;4.112;2023-09-07T07:12:49;9.45;;;7.82;;
23142;SDS011;11740;51.168;4.112;2023-09-07T07:15:15;10.40;;;8.02;;
23142;SDS011;11740;51.168;4.112;2023-09-07T07:17:42;14.95;;;8.57;;
23142;SDS011;11740;51.168;4.112;2023-09-07T07:20:09;12.40;;;8.63;;
23142;SDS011;11740;51.168;4.112;2023-09-07T07:22:37;9.05;;;7.88;;
23142;SDS011;11740;51.168;4.112;2023-09-07T07:25:04;8.98;;;7.28;;
23142;SDS011;11740;51.168;4.112;2023-09-07T07:27:31;12.35;;;7.95;;
23142;SDS011;11740;51.168;4.112;2023-09-07T07:29:59;12.75;;;7.88;;
23142;SDS011;11740;51.168;4.112;2023-09-07T07:32:26;9.68;;;7.65;;
23142;SDS011;11740;51.168;4.112;2023-09-07T07:34:53;13.68;;;8.15;;
23142;SDS011;11740;51.168;4.112;2023-09-07T07:37:20;10.15;;;7.13;;
23142;SDS011;11740;51.168;4.112;2023-09-07T07:39:47;10.20;;;7.35;;
23142;SDS011;11740;51.168;4.112;2023-09-07T07:42:14;8.88;;;7.13;;
23142;SDS011;11740;51.168;4.112;2023-09-07T07:44:41;8.07;;;6.38;;
23142;SDS011;11740;51.168;4.112;2023-09-07T07:47:08;11.13;;;6.90;;
23142;SDS011;11740;51.168;4.112;2023-09-07T07:49:35;8.63;;;6.55;;
23142;SDS011;11740;51.168;4.112;2023-09-07T07:52:03;7.43;;;6.20;;
23142;SDS011;11740;51.168;4.112;2023-09-07T07:54:32;7.65;;;6.55;;
23142;SDS011;11740;51.168;4.112;2023-09-07T07:57:00;11.13;;;6.80;;
23142;SDS011;11740;51.168;4.112;2023-09-07T07:59:27;10.93;;;6.53;;
23142;SDS011;11740;51.168;4.112;2023-09-07T08:01:54;10.20;;;6.40;;
23142;SDS011;11740;51.168;4.112;2023-09-07T08:04:21;10.07;;;6.10;;
23142;SDS011;11740;51.168;4.112;2023-09-07T08:06:48;8.20;;;5.80;;
23142;SDS011;11740;51.168;4.112;2023-09-07T08:09:15;10.70;;;5.65;;
23142;SDS011;11740;51.168;4.112;2023-09-07T08:11:42;8.43;;;5.65;;
23142;SDS011;11740;51.168;4.112;2023-09-07T08:14:09;9.00;;;5.70;;
23142;SDS011;11740;51.168;4.112;2023-09-07T08:16:37;7.18;;;4.95;;
23142;SDS011;11740;51.168;4.112;2023-09-07T08:19:04;6.53;;;5.10;;
23142;SDS011;11740;51.168;4.112;2023-09-07T08:21:31;8.05;;;5.03;;
23142;SDS011;11740;51.168;4.112;2023-09-07T08:23:58;6.25;;;5.00;;
23142;SDS011;11740;51.168;4.112;2023-09-07T08:26:26;6.72;;;5.35;;
23142;SDS011;11740;51.168;4.112;2023-09-07T08:28:53;7.78;;;4.82;;
23142;SDS011;11740;51.168;4.112;2023-09-07T08:31:20;7.07;;;4.90;;
23142;SDS011;11740;51.168;4.112;2023-09-07T08:33:49;6.85;;;4.40;;
23142;SDS011;11740;51.168;4.112;2023-09-07T08:36:21;4.82;;;4.32;;
23142;SDS011;11740;51.168;4.112;2023-09-07T08:38:50;7.93;;;4.70;;
23142;SDS011;11740;51.168;4.112;2023-09-07T08:41:20;6.15;;;4.53;;
23142;SDS011;11740;51.168;4.112;2023-09-07T08:43:47;5.18;;;4.00;;
23142;SDS011;11740;51.168;4.112;2023-09-07T08:46:19;6.95;;;4.07;;
23142;SDS011;11740;51.168;4.112;2023-09-07T08:48:50;7.13;;;4.50;;
23142;SDS011;11740;51.168;4.112;2023-09-07T08:51:18;5.25;;;4.35;;
23142;SDS011;11740;51.168;4.112;2023-09-07T08:53:46;8.50;;;4.63;;
23142;SDS011;11740;51.168;4.112;2023-09-07T08:56:14;7.50;;;4.82;;
23142;SDS011;11740;51.168;4.112;2023-09-07T08:58:42;6.80;;;4.30;;
23142;SDS011;11740;51.168;4.112;2023-09-07T09:01:11;6.03;;;3.88;;
23142;SDS011;11740;51.168;4.112;2023-09-07T09:03:39;6.43;;;3.90;;
23142;SDS011;11740;51.168;4.112;2023-09-07T09:06:09;5.43;;;4.10;;
23142;SDS011;11740;51.168;4.112;2023-09-07T09:08:50;6.22;;;4.22;;
23142;SDS011;11740;51.168;4.112;2023-09-07T09:11:19;6.78;;;3.90;;
23142;SDS011;11740;51.168;4.112;2023-09-07T09:13:47;6.10;;;4.10;;
23142;SDS011;11740;51.168;4.112;2023-09-07T09:16:16;6.95;;;4.63;;
23142;SDS011;11740;51.168;4.112;2023-09-07T09:18:49;8.60;;;4.85;;
23142;SDS011;11740;51.168;4.112;2023-09-07T09:21:22;8.48;;;4.35;;
23142;SDS011;11740;51.168;4.112;2023-09-07T09:23:53;8.18;;;4.35;;
23142;SDS011;11740;51.168;4.112;2023-09-07T09:26:22;8.07;;;4.55;;
23142;SDS011;11740;51.168;4.112;2023-09-07T09:28:55;9.02;;;4.40;;
23142;SDS011;11740;51.168;4.112;2023-09-07T09:31:23;5.10;;;4.38;;
23142;SDS011;11740;51.168;4.112;2023-09-07T09:33:51;7.32;;;3.80;;
23142;SDS011;11740;51.168;4.112;2023-09-07T09:36:18;7.10;;;4.00;;
23142;SDS011;11740;51.168;4.112;2023-09-07T09:38:49;9.15;;;3.92;;
23142;SDS011;11740;51.168;4.112;2023-09-07T09:41:20;6.40;;;3.93;;
23142;SDS011;11740;51.168;4.112;2023-09-07T09:43:47;8.73;;;3.88;;
23142;SDS011;11740;51.168;4.112;2023-09-07T09:46:15;9.73;;;4.18;;
23142;SDS011;11740;51.168;4.112;2023-09-07T09:48:44;8.95;;;4.45;;
23142;SDS011;11740;51.168;4.112;2023-09-07T09:51:11;8.95;;;4.13;;
23142;SDS011;11740;51.168;4.112;2023-09-07T09:53:41;5.93;;;4.45;;
23142;SDS011;11740;51.168;4.112;2023-09-07T09:56:09;7.95;;;3.55;;
23142;SDS011;11740;51.168;4.112;2023-09-07T09:58:36;8.45;;;3.55;;
23142;SDS011;11740;51.168;4.112;2023-09-07T10:01:04;4.70;;;3.50;;
23142;SDS011;11740;51.168;4.112;2023-09-07T10:03:32;6.78;;;3.30;;
23142;SDS011;11740;51.168;4.112;2023-09-07T10:06:23;4.47;;;3.30;;
23142;SDS011;11740;51.168;4.112;2023-09-07T10:08:57;5.53;;;3.08;;
23142;SDS011;11740;51.168;4.112;2023-09-07T10:11:38;6.47;;;3.50;;
23142;SDS011;11740;51.168;4.112;2023-09-07T10:14:06;6.60;;;3.25;;
23142;SDS011;11740;51.168;4.112;2023-09-07T10:16:44;6.32;;;3.13;;
23142;SDS011;11740;51.168;4.112;2023-09-07T10:19:19;8.35;;;3.78;;
23142;SDS011;11740;51.168;4.112;2023-09-07T10:21:48;5.80;;;3.53;;
23142;SDS011;11740;51.168;4.112;2023-09-07T10:24:28;6.97;;;3.30;;
23142;SDS011;11740;51.168;4.112;2023-09-07T10:27:02;7.22;;;3.70;;
23142;SDS011;11740;51.168;4.112;2023-09-07T10:29:41;5.43;;;3.22;;
23142;SDS011;11740;51.168;4.112;2023-09-07T10:32:13;5.53;;;3.60;;
23142;SDS011;11740;51.168;4.112;2023-09-07T10:34:45;5.85;;;3.45;;
23142;SDS011;11740;51.168;4.112;2023-09-07T10:37:13;8.07;;;3.30;;
23142;SDS011;11740;51.168;4.112;2023-09-07T10:39:41;7.18;;;3.10;;
23142;SDS011;11740;51.168;4.112;2023-09-07T10:42:23;7.60;;;3.55;;
23142;SDS011;11740;51.168;4.112;2023-09-07T10:44:51;8.68;;;3.63;;
23142;SDS011;11740;51.168;4.112;2023-09-07T10:47:19;3.97;;;3.25;;
23142;SDS011;11740;51.168;4.112;2023-09-07T10:49:46;8.02;;;3.92;;
23142;SDS011;11740;51.168;4.112;2023-09-07T10:52:13;5.53;;;3.33;;
23142;SDS011;11740;51.168;4.112;2023-09-07T10:54:40;6.90;;;3.33;;
23142;SDS011;11740;51.168;4.112;2023-09-07T10:57:08;8.80;;;3.28;;
23142;SDS011;11740;51.168;4.112;2023-09-07T10:59:36;4.93;;;3.58;;
23142;SDS011;11740;51.168;4.112;2023-09-07T11:02:04;5.63;;;3.38;;
23142;SDS011;11740;51.168;4.112;2023-09-07T11:04:31;7.85;;;3.50;;
23142;SDS011;11740;51.168;4.112;2023-09-07T11:06:59;8.15;;;3.75;;
23142;SDS011;11740;51.168;4.112;2023-09-07T11:09:29;4.13;;;3.33;;
23142;SDS011;11740;51.168;4.112;2023-09-07T11:12:03;3.42;;;3.10;;
23142;SDS011;11740;51.168;4.112;2023-09-07T11:14:31;7.18;;;3.33;;
23142;SDS011;11740;51.168;4.112;2023-09-07T11:17:02;7.30;;;3.58;;
23142;SDS011;11740;51.168;4.112;2023-09-07T11:19:33;5.38;;;3.38;;
23142;SDS011;11740;51.168;4.112;2023-09-07T11:22:00;7.47;;;3.55;;
23142;SDS011;11740;51.168;4.112;2023-09-07T11:24:31;8.55;;;3.03;;
23142;SDS011;11740;51.168;4.112;2023-09-07T11:27:01;5.75;;;3.20;;
23142;SDS011;11740;51.168;4.112;2023-09-07T11:29:33;4.93;;;3.25;;
23142;SDS011;11740;51.168;4.112;2023-09-07T11:32:06;3.47;;;2.70;;
23142;SDS011;11740;51.168;4.112;2023-09-07T11:34:50;5.93;;;2.88;;
23142;SDS011;11740;51.168;4.112;2023-09-07T11:37:25;5.07;;;2.97;;
23142;SDS011;11740;51.168;4.112;2023-09-07T11:39:52;6.05;;;3.20;;
23142;SDS011;11740;51.168;4.112;2023-09-07T11:42:19;6.10;;;3.30;;
23142;SDS011;11740;51.168;4.112;2023-09-07T11:44:47;3.90;;;3.30;;
23142;SDS011;11740;51.168;4.112;2023-09-07T11:47:14;6.03;;;3.22;;
23142;SDS011;11740;51.168;4.112;2023-09-07T11:49:41;5.13;;;3.00;;
23142;SDS011;11740;51.168;4.112;2023-09-07T11:52:08;5.75;;;2.85;;
23142;SDS011;11740;51.168;4.112;2023-09-07T11:54:35;4.00;;;2.85;;
23142;SDS011;11740;51.168;4.112;2023-09-07T11:57:02;4.95;;;3.00;;
23142;SDS011;11740;51.168;4.112;2023-09-07T11:59:29;3.90;;;2.80;;
23142;SDS011;11740;51.168;4.112;2023-09-07T12:02:13;4.25;;;3.13;;
23142;SDS011;11740;51.168;4.112;2023-09-07T12:04:41;5.80;;;2.65;;
23142;SDS011;11740;51.168;4.112;2023-09-07T12:07:08;6.05;;;2.80;;
23142;SDS011;11740;51.168;4.112;2023-09-07T12:09:35;4.47;;;2.80;;
23142;SDS011;11740;51.168;4.112;2023-09-07T12:12:02;3.45;;;2.75;;
23142;SDS011;11740;51.168;4.112;2023-09-07T12:14:30;3.55;;;2.83;;
23142;SDS011;11740;51.168;4.112;2023-09-07T12:16:57;3.75;;;2.80;;
23142;SDS011;11740;51.168;4.112;2023-09-07T12:19:25;5.30;;;2.60;;
23142;SDS011;11740;51.168;4.112;2023-09-07T12:21:52;3.72;;;2.92;;
23142;SDS011;11740;51.168;4.112;2023-09-07T12:24:19;3.33;;;2.70;;
23142;SDS011;11740;51.168;4.112;2023-09-07T12:26:46;3.60;;;2.50;;
23142;SDS011;11740;51.168;4.112;2023-09-07T12:29:13;4.78;;;2.90;;
23142;SDS011;11740;51.168;4.112;2023-09-07T12:31:40;3.03;;;2.67;;
23142;SDS011;11740;51.168;4.112;2023-09-07T12:34:07;4.93;;;2.97;;
23142;SDS011;11740;51.168;4.112;2023-09-07T12:36:34;3.92;;;2.80;;
23142;SDS011;11740;51.168;4.112;2023-09-07T12:39:01;5.97;;;2.65;;
23142;SDS011;11740;51.168;4.112;2023-09-07T12:41:29;5.32;;;2.90;;
23142;SDS011;11740;51.168;4.112;2023-09-07T12:43:59;3.97;;;2.60;;
23142;SDS011;11740;51.168;4.112;2023-09-07T12:46:26;4.53;;;2.92;;
23142;SDS011;11740;51.168;4.112;2023-09-07T12:48:53;4.05;;;2.90;;
23142;SDS011;11740;51.168;4.112;2023-09-07T12:51:20;4.85;;;2.65;;
23142;SDS011;11740;51.168;4.112;2023-09-07T12:53:47;4.38;;;2.60;;
23142;SDS011;11740;51.168;4.112;2023-09-07T12:56:14;12.73;;;3.20;;
23142;SDS011;11740;51.168;4.112;2023-09-07T12:58:42;5.22;;;2.75;;
23142;SDS011;11740;51.168;4.112;2023-09-07T13:01:09;4.90;;;3.20;;
23142;SDS011;11740;51.168;4.112;2023-09-07T13:03:41;5.40;;;2.53;;
23142;SDS011;11740;51.168;4.112;2023-09-07T13:06:09;5.38;;;2.65;;
23142;SDS011;11740;51.168;4.112;2023-09-07T13:08:36;4.82;;;2.78;;
23142;SDS011;11740;51.168;4.112;2023-09-07T13:11:03;6.88;;;2.75;;
23142;SDS011;11740;51.168;4.112;2023-09-07T13:13:30;8.98;;;3.05;;
23142;SDS011;11740;51.168;4.112;2023-09-07T13:15:57;4.43;;;2.58;;
23142;SDS011;11740;51.168;4.112;2023-09-07T13:18:25;4.03;;;2.70;;
23142;SDS011;11740;51.168;4.112;2023-09-07T13:20:52;5.05;;;2.70;;
23142;SDS011;11740;51.168;4.112;2023-09-07T13:23:26;4.32;;;2.72;;
23142;SDS011;11740;51.168;4.112;2023-09-07T13:25:54;3.17;;;2.30;;
23142;SDS011;11740;51.168;4.112;2023-09-07T13:28:22;4.65;;;2.53;;
23142;SDS011;11740;51.168;4.112;2023-09-07T13:30:50;3.80;;;2.88;;
23142;SDS011;11740;51.168;4.112;2023-09-07T13:33:17;5.07;;;2.30;;
23142;SDS011;11740;51.168;4.112;2023-09-07T13:35:44;5.40;;;2.60;;
23142;SDS011;11740;51.168;4.112;2023-09-07T13:38:12;5.32;;;2.72;;
23142;SDS011;11740;51.168;4.112;2023-09-07T13:40:39;4.90;;;2.45;;
23142;SDS011;11740;51.168;4.112;2023-09-07T13:43:06;7.65;;;2.40;;
23142;SDS011;11740;51.168;4.112;2023-09-07T13:45:33;4.57;;;2.47;;
23142;SDS011;11740;51.168;4.112;2023-09-07T13:48:00;4.30;;;2.42;;
23142;SDS011;11740;51.168;4.112;2023-09-07T13:50:28;6.28;;;2.90;;
23142;SDS011;11740;51.168;4.112;2023-09-07T13:52:55;4.10;;;2.70;;
23142;SDS011;11740;51.168;4.112;2023-09-07T13:55:22;3.40;;;2.40;;
23142;SDS011;11740;51.168;4.112;2023-09-07T13:57:51;2.85;;;2.33;;
23142;SDS011;11740;51.168;4.112;2023-09-07T14:00:18;5.03;;;2.30;;
23142;SDS011;11740;51.168;4.112;2023-09-07T14:02:46;7.05;;;2.50;;
23142;SDS011;11740;51.168;4.112;2023-09-07T14:05:13;6.97;;;2.70;;
23142;SDS011;11740;51.168;4.112;2023-09-07T14:07:40;5.28;;;2.50;;
23142;SDS011;11740;51.168;4.112;2023-09-07T14:10:07;6.18;;;2.60;;
23142;SDS011;11740;51.168;4.112;2023-09-07T14:12:35;6.03;;;2.40;;
23142;SDS011;11740;51.168;4.112;2023-09-07T14:15:02;6.70;;;2.67;;
23142;SDS011;11740;51.168;4.112;2023-09-07T14:17:29;3.53;;;2.58;;
23142;SDS011;11740;51.168;4.112;2023-09-07T14:19:57;5.90;;;2.47;;
23142;SDS011;11740;51.168;4.112;2023-09-07T14:22:23;5.75;;;2.50;;
23142;SDS011;11740;51.168;4.112;2023-09-07T14:24:50;7.38;;;2.75;;
23142;SDS011;11740;51.168;4.112;2023-09-07T14:27:17;2.75;;;2.40;;
23142;SDS011;11740;51.168;4.112;2023-09-07T14:29:44;5.43;;;2.60;;
23142;SDS011;11740;51.168;4.112;2023-09-07T14:32:11;5.07;;;2.63;;
23142;SDS011;11740;51.168;4.112;2023-09-07T14:34:38;5.80;;;2.60;;
23142;SDS011;11740;51.168;4.112;2023-09-07T14:37:05;5.97;;;2.75;;
23142;SDS011;11740;51.168;4.112;2023-09-07T14:39:32;5.10;;;2.95;;
23142;SDS011;11740;51.168;4.112;2023-09-07T14:42:01;2.72;;;2.47;;
23142;SDS011;11740;51.168;4.112;2023-09-07T14:44:29;3.03;;;2.42;;
23142;SDS011;11740;51.168;4.112;2023-09-07T14:46:56;4.30;;;2.50;;
23142;SDS011;11740;51.168;4.112;2023-09-07T14:49:23;4.47;;;2.70;;
23142;SDS011;11740;51.168;4.112;2023-09-07T14:51:50;3.95;;;2.67;;